createdAt,value
2023-01-30T00:00:25.255Z,8.43
2023-01-30T00:01:25.357Z,8.43
2023-01-30T00:02:25.560Z,8.43
2023-01-30T00:03:31.494Z,8.38
2023-01-30T00:04:25.585Z,8.49
2023-01-30T00:05:25.663Z,8.38
2023-01-30T00:06:25.730Z,8.49
2023-01-30T00:07:25.838Z,8.38
2023-01-30T00:08:25.897Z,8.43
2023-01-30T00:09:25.998Z,8.59
2023-01-30T00:10:26.198Z,8.43
2023-01-30T00:11:26.168Z,8.43
2023-01-30T00:12:26.253Z,8.43
2023-01-30T00:13:26.344Z,8.43
2023-01-30T00:14:26.419Z,8.38
2023-01-30T00:15:26.498Z,8.65
2023-01-30T00:16:26.603Z,8.38
2023-01-30T00:17:26.677Z,8.43
2023-01-30T00:18:26.767Z,8.49
2023-01-30T00:19:26.807Z,8.49
2023-01-30T00:20:26.894Z,8.43
2023-01-30T00:21:26.997Z,8.49
2023-01-30T00:22:27.064Z,8.43
2023-01-30T00:23:27.192Z,8.43
2023-01-30T00:24:27.272Z,8.43
2023-01-30T00:25:27.443Z,8.43
2023-01-30T00:26:27.414Z,8.65
2023-01-30T00:27:27.461Z,8.43
2023-01-30T00:28:27.547Z,8.43
2023-01-30T00:29:27.627Z,8.43
2023-01-30T00:30:27.757Z,8.43
2023-01-30T00:31:27.826Z,8.43
2023-01-30T00:32:27.871Z,8.43
2023-01-30T00:33:27.968Z,8.43
2023-01-30T00:34:34.235Z,8.49
2023-01-30T00:35:28.146Z,8.49
2023-01-30T00:36:28.232Z,8.43
2023-01-30T00:37:28.318Z,8.43
2023-01-30T00:38:28.399Z,8.43
2023-01-30T00:39:28.472Z,8.43
2023-01-30T00:40:28.568Z,8.43
2023-01-30T00:41:28.615Z,8.43
2023-01-30T00:42:28.709Z,8.43
2023-01-30T00:43:28.773Z,8.38
2023-01-30T00:44:28.864Z,8.49
2023-01-30T00:45:29.025Z,8.43
2023-01-30T00:46:29.042Z,8.49
2023-01-30T00:47:29.103Z,8.43
2023-01-30T00:48:29.189Z,8.43
2023-01-30T00:49:30.395Z,8.65
2023-01-30T00:50:29.328Z,8.43
2023-01-30T00:51:29.417Z,8.49
2023-01-30T00:52:29.514Z,8.49
2023-01-30T00:53:29.567Z,8.43
2023-01-30T00:54:29.632Z,8.49
2023-01-30T00:55:29.718Z,8.38
2023-01-30T00:56:29.801Z,8.43
2023-01-30T00:57:29.892Z,8.43
2023-01-30T00:58:30.001Z,8.43
2023-01-30T00:59:30.055Z,8.43
2023-01-30T01:00:30.115Z,8.54
2023-01-30T01:01:30.194Z,8.43
2023-01-30T01:02:30.262Z,8.43
2023-01-30T01:03:30.343Z,8.43
2023-01-30T01:04:30.437Z,8.43
2023-01-30T01:05:36.476Z,8.43
2023-01-30T01:06:30.589Z,8.49
2023-01-30T01:07:30.679Z,8.43
2023-01-30T01:08:30.758Z,8.49
2023-01-30T01:09:30.877Z,8.49
2023-01-30T01:10:30.957Z,8.49
2023-01-30T01:11:31.026Z,8.43
2023-01-30T01:12:31.120Z,8.75
2023-01-30T01:13:31.211Z,8.49
2023-01-30T01:14:31.307Z,8.43
2023-01-30T01:15:31.395Z,8.43
2023-01-30T01:16:31.557Z,8.43
2023-01-30T01:17:31.546Z,8.43
2023-01-30T01:18:31.619Z,8.43
2023-01-30T01:19:31.719Z,8.43
2023-01-30T01:20:31.834Z,8.43
2023-01-30T01:21:31.886Z,8.38
2023-01-30T01:22:31.967Z,8.49
2023-01-30T01:23:32.050Z,8.38
2023-01-30T01:24:32.139Z,8.43
2023-01-30T01:25:32.214Z,8.49
2023-01-30T01:26:32.376Z,8.38
2023-01-30T01:27:32.386Z,8.43
2023-01-30T01:28:32.461Z,8.43
2023-01-30T01:29:32.558Z,8.43
2023-01-30T01:30:32.625Z,8.43
2023-01-30T01:31:32.877Z,8.43
2023-01-30T01:32:32.780Z,8.43
2023-01-30T01:33:32.868Z,8.43
2023-01-30T01:34:32.943Z,8.43
2023-01-30T01:35:33.015Z,8.43
2023-01-30T01:36:53.172Z,8.43
2023-01-30T01:37:33.193Z,8.49
2023-01-30T01:38:33.271Z,8.49
2023-01-30T01:39:33.349Z,8.43
2023-01-30T01:40:33.430Z,8.43
2023-01-30T01:41:33.545Z,8.49
2023-01-30T01:42:33.646Z,8.49
2023-01-30T01:43:33.708Z,8.43
2023-01-30T01:44:33.778Z,8.49
2023-01-30T01:45:33.894Z,8.43
2023-01-30T01:46:33.944Z,8.43
2023-01-30T01:47:34.022Z,8.38
2023-01-30T01:48:34.122Z,8.43
2023-01-30T01:49:34.206Z,8.43
2023-01-30T01:50:34.271Z,8.49
2023-01-30T01:51:34.337Z,8.49
2023-01-30T01:52:34.396Z,8.38
2023-01-30T01:53:34.511Z,8.49
2023-01-30T01:54:34.582Z,8.43
2023-01-30T01:55:34.671Z,8.49
2023-01-30T01:56:34.753Z,8.49
2023-01-30T01:57:34.819Z,8.43
2023-01-30T01:58:34.886Z,8.43
2023-01-30T01:59:35.003Z,8.38
2023-01-30T02:00:35.043Z,8.43
2023-01-30T02:01:35.127Z,8.43
2023-01-30T02:02:35.257Z,8.43
2023-01-30T02:03:35.316Z,8.43
2023-01-30T02:04:35.425Z,8.43
2023-01-30T02:05:35.510Z,8.43
2023-01-30T02:06:35.571Z,8.43
2023-01-30T02:07:41.628Z,8.38
2023-01-30T02:08:35.745Z,8.43
2023-01-30T02:09:35.845Z,8.43
2023-01-30T02:10:35.926Z,8.49
2023-01-30T02:11:36.032Z,8.43
2023-01-30T02:12:36.108Z,8.43
2023-01-30T02:13:36.180Z,8.43
2023-01-30T02:14:36.268Z,8.43
2023-01-30T02:15:36.343Z,8.43
2023-01-30T02:16:36.425Z,8.54
2023-01-30T02:17:36.582Z,8.38
2023-01-30T02:18:36.565Z,8.49
2023-01-30T02:19:36.638Z,8.43
2023-01-30T02:20:36.734Z,8.49
2023-01-30T02:21:36.818Z,8.49
2023-01-30T02:22:36.903Z,8.49
2023-01-30T02:23:37.007Z,8.43
2023-01-30T02:24:37.051Z,8.43
2023-01-30T02:25:37.129Z,8.43
2023-01-30T02:26:37.249Z,8.43
2023-01-30T02:27:37.306Z,8.54
2023-01-30T02:28:37.406Z,8.43
2023-01-30T02:29:37.603Z,8.43
2023-01-30T02:30:37.650Z,8.38
2023-01-30T02:31:37.837Z,8.43
2023-01-30T02:32:37.762Z,8.49
2023-01-30T02:33:37.824Z,8.49
2023-01-30T02:34:37.929Z,8.43
2023-01-30T02:35:38.038Z,8.49
2023-01-30T02:36:38.106Z,8.43
2023-01-30T02:37:38.190Z,8.49
2023-01-30T02:38:44.253Z,8.43
2023-01-30T02:39:38.367Z,8.43
2023-01-30T02:40:38.486Z,8.43
2023-01-30T02:41:38.544Z,8.49
2023-01-30T02:42:38.623Z,8.43
2023-01-30T02:43:38.705Z,8.49
2023-01-30T02:44:38.777Z,8.43
2023-01-30T02:45:38.992Z,8.43
2023-01-30T02:46:38.960Z,8.43
2023-01-30T02:47:39.027Z,8.43
2023-01-30T02:48:39.118Z,8.49
2023-01-30T02:49:39.210Z,8.49
2023-01-30T02:50:39.316Z,8.43
2023-01-30T02:51:39.404Z,8.43
2023-01-30T02:52:39.511Z,8.43
2023-01-30T02:53:39.565Z,8.43
2023-01-30T02:54:39.672Z,8.43
2023-01-30T02:55:39.751Z,8.49
2023-01-30T02:56:39.832Z,8.49
2023-01-30T02:57:39.921Z,8.49
2023-01-30T02:58:40.030Z,8.43
2023-01-30T02:59:40.070Z,8.49
2023-01-30T03:00:40.179Z,8.49
2023-01-30T03:01:40.318Z,8.43
2023-01-30T03:02:40.400Z,8.43
2023-01-30T03:03:40.410Z,8.49
2023-01-30T03:04:40.489Z,8.49
2023-01-30T03:05:40.560Z,8.43
2023-01-30T03:06:40.651Z,8.43
2023-01-30T03:07:40.739Z,8.43
2023-01-30T03:08:40.807Z,8.43
2023-01-30T03:09:47.336Z,8.43
2023-01-30T03:10:40.967Z,8.43
2023-01-30T03:11:41.032Z,8.43
2023-01-30T03:12:41.131Z,8.38
2023-01-30T03:13:41.216Z,8.49
2023-01-30T03:14:41.321Z,8.43
2023-01-30T03:15:41.420Z,8.43
2023-01-30T03:16:41.491Z,8.43
2023-01-30T03:17:41.548Z,8.43
2023-01-30T03:18:41.643Z,8.43
2023-01-30T03:19:41.751Z,8.43
2023-01-30T03:20:41.835Z,8.49
2023-01-30T03:21:41.913Z,8.49
2023-01-30T03:22:41.994Z,8.43
2023-01-30T03:23:42.090Z,8.43
2023-01-30T03:24:42.156Z,8.49
2023-01-30T03:25:42.232Z,8.43
2023-01-30T03:26:42.400Z,8.43
2023-01-30T03:27:42.369Z,8.49
2023-01-30T03:28:42.430Z,8.49
2023-01-30T03:29:42.528Z,8.38
2023-01-30T03:30:42.629Z,8.43
2023-01-30T03:31:42.836Z,8.49
2023-01-30T03:32:42.754Z,8.43
2023-01-30T03:33:42.837Z,8.43
2023-01-30T03:34:42.931Z,8.43
2023-01-30T03:35:43.008Z,8.43
2023-01-30T03:36:43.098Z,8.43
2023-01-30T03:37:43.195Z,8.43
2023-01-30T03:38:43.246Z,8.43
2023-01-30T03:39:43.328Z,8.43
2023-01-30T03:40:49.373Z,8.43
2023-01-30T03:41:43.478Z,8.43
2023-01-30T03:42:43.592Z,8.43
2023-01-30T03:43:43.643Z,8.49
2023-01-30T03:44:43.728Z,8.43
2023-01-30T03:45:43.811Z,8.43
2023-01-30T03:46:43.892Z,8.43
2023-01-30T03:47:43.990Z,8.43
2023-01-30T03:48:44.090Z,8.43
2023-01-30T03:49:44.152Z,8.43
2023-01-30T03:50:44.253Z,8.43
2023-01-30T03:51:44.337Z,8.43
2023-01-30T03:52:44.407Z,8.43
2023-01-30T03:53:44.496Z,8.49
2023-01-30T03:54:44.552Z,8.49
2023-01-30T03:55:44.632Z,8.43
2023-01-30T03:56:44.682Z,8.38
2023-01-30T03:57:44.777Z,8.49
2023-01-30T03:58:44.882Z,8.43
2023-01-30T03:59:44.994Z,8.43
2023-01-30T04:00:45.065Z,8.43
2023-01-30T04:01:45.160Z,8.38
2023-01-30T04:02:45.256Z,8.43
2023-01-30T04:03:45.324Z,8.43
2023-01-30T04:04:45.416Z,8.43
2023-01-30T04:05:45.523Z,8.49
2023-01-30T04:06:45.583Z,8.43
2023-01-30T04:07:45.666Z,8.49
2023-01-30T04:08:45.765Z,8.49
2023-01-30T04:09:45.857Z,8.49
2023-01-30T04:10:45.927Z,8.43
2023-01-30T04:11:52.358Z,8.43
2023-01-30T04:12:46.103Z,8.49
2023-01-30T04:13:46.210Z,8.43
2023-01-30T04:14:46.251Z,8.38
2023-01-30T04:15:46.306Z,8.38
2023-01-30T04:16:46.524Z,8.43
2023-01-30T04:17:46.436Z,8.43
2023-01-30T04:18:46.506Z,8.38
2023-01-30T04:19:46.572Z,8.43
2023-01-30T04:20:46.667Z,8.49
2023-01-30T04:21:46.732Z,8.49
2023-01-30T04:22:46.877Z,8.43
2023-01-30T04:23:46.888Z,8.43
2023-01-30T04:24:46.957Z,8.43
2023-01-30T04:25:47.060Z,8.43
2023-01-30T04:26:47.230Z,8.43
2023-01-30T04:27:47.250Z,8.38
2023-01-30T04:28:47.333Z,8.49
2023-01-30T04:29:47.384Z,8.43
2023-01-30T04:30:47.493Z,8.43
2023-01-30T04:31:47.558Z,8.43
2023-01-30T04:32:47.622Z,8.43
2023-01-30T04:33:47.732Z,8.49
2023-01-30T04:34:47.797Z,8.43
2023-01-30T04:35:47.897Z,8.43
2023-01-30T04:36:47.999Z,8.49
2023-01-30T04:37:48.065Z,8.38
2023-01-30T04:38:48.131Z,8.43
2023-01-30T04:39:48.227Z,8.43
2023-01-30T04:40:48.286Z,8.43
2023-01-30T04:41:48.366Z,8.38
2023-01-30T04:42:54.427Z,8.43
2023-01-30T04:43:48.526Z,8.49
2023-01-30T04:44:48.611Z,8.43
2023-01-30T04:45:48.647Z,8.49
2023-01-30T04:46:48.746Z,8.54
2023-01-30T04:47:48.887Z,8.38
2023-01-30T04:48:48.930Z,8.49
2023-01-30T04:49:49.024Z,8.43
2023-01-30T04:50:49.132Z,8.43
2023-01-30T04:51:49.148Z,8.43
2023-01-30T04:52:49.218Z,8.43
2023-01-30T04:53:49.317Z,8.49
2023-01-30T04:54:49.403Z,8.43
2023-01-30T04:55:49.490Z,8.43
2023-01-30T04:56:49.576Z,8.43
2023-01-30T04:57:49.645Z,8.38
2023-01-30T04:58:49.733Z,8.49
2023-01-30T04:59:49.814Z,8.43
2023-01-30T05:00:50.107Z,8.43
2023-01-30T05:01:50.153Z,8.43
2023-01-30T05:02:50.103Z,8.43
2023-01-30T05:03:50.194Z,8.27
2023-01-30T05:04:50.290Z,8.43
2023-01-30T05:05:50.346Z,8.43
2023-01-30T05:06:50.463Z,8.49
2023-01-30T05:07:50.550Z,8.49
2023-01-30T05:08:50.621Z,8.38
2023-01-30T05:09:50.709Z,8.49
2023-01-30T05:10:50.800Z,8.43
2023-01-30T05:11:50.885Z,8.49
2023-01-30T05:12:50.960Z,8.43
2023-01-30T05:13:57.400Z,8.43
2023-01-30T05:14:51.142Z,8.43
2023-01-30T05:15:51.230Z,8.43
2023-01-30T05:16:51.338Z,8.49
2023-01-30T05:17:51.377Z,8.43
2023-01-30T05:18:51.484Z,8.43
2023-01-30T05:19:51.568Z,8.22
2023-01-30T05:20:51.645Z,8.43
2023-01-30T05:21:51.708Z,8.43
2023-01-30T05:22:51.795Z,8.43
2023-01-30T05:23:51.888Z,8.43
2023-01-30T05:24:51.956Z,8.49
2023-01-30T05:25:52.045Z,8.49
2023-01-30T05:26:52.134Z,8.43
2023-01-30T05:27:52.312Z,8.43
2023-01-30T05:28:52.319Z,8.59
2023-01-30T05:29:52.378Z,8.43
2023-01-30T05:30:52.450Z,8.38
2023-01-30T05:31:52.578Z,8.43
2023-01-30T05:32:52.592Z,8.43
2023-01-30T05:33:52.712Z,8.43
2023-01-30T05:34:52.744Z,8.43
2023-01-30T05:35:52.823Z,8.43
2023-01-30T05:36:52.913Z,8.49
2023-01-30T05:37:53.008Z,8.49
2023-01-30T05:38:53.074Z,8.43
2023-01-30T05:39:53.152Z,8.49
2023-01-30T05:40:53.248Z,8.43
2023-01-30T05:41:53.335Z,8.54
2023-01-30T05:42:53.402Z,8.43
2023-01-30T05:43:53.499Z,8.43
2023-01-30T05:44:59.532Z,8.43
2023-01-30T05:45:53.654Z,8.43
2023-01-30T05:46:53.806Z,8.43
2023-01-30T05:47:58.469Z,8.43
2023-01-30T05:48:53.940Z,8.38
2023-01-30T05:49:54.032Z,8.43
2023-01-30T05:50:54.080Z,8.38
2023-01-30T05:51:54.168Z,8.43
2023-01-30T05:52:54.248Z,8.43
2023-01-30T05:53:54.344Z,8.43
2023-01-30T05:54:54.409Z,8.43
2023-01-30T05:55:54.501Z,8.49
2023-01-30T05:56:54.586Z,8.49
2023-01-30T05:57:54.675Z,8.43
2023-01-30T05:58:54.776Z,8.49
2023-01-30T05:59:54.850Z,8.43
2023-01-30T06:00:54.919Z,8.49
2023-01-30T06:01:55.012Z,8.49
2023-01-30T06:02:55.094Z,8.43
2023-01-30T06:03:55.164Z,8.49
2023-01-30T06:04:55.245Z,8.43
2023-01-30T06:05:55.345Z,8.43
2023-01-30T06:06:55.453Z,8.43
2023-01-30T06:07:55.516Z,8.27
2023-01-30T06:08:55.580Z,8.27
2023-01-30T06:09:55.659Z,8.43
2023-01-30T06:10:55.747Z,8.43
2023-01-30T06:11:55.808Z,8.43
2023-01-30T06:12:55.911Z,8.27
2023-01-30T06:13:55.990Z,8.49
2023-01-30T06:14:56.072Z,8.22
2023-01-30T06:16:02.153Z,8.43
2023-01-30T06:16:56.311Z,8.43
2023-01-30T06:17:56.344Z,8.49
2023-01-30T06:18:56.379Z,8.49
2023-01-30T06:19:56.493Z,8.43
2023-01-30T06:20:56.536Z,8.43
2023-01-30T06:21:56.628Z,8.38
2023-01-30T06:22:56.711Z,8.43
2023-01-30T06:23:56.802Z,8.43
2023-01-30T06:24:56.887Z,8.54
2023-01-30T06:25:56.983Z,8.43
2023-01-30T06:26:57.032Z,8.43
2023-01-30T06:27:57.097Z,8.27
2023-01-30T06:28:57.188Z,8.22
2023-01-30T06:29:57.267Z,8.43
2023-01-30T06:30:57.387Z,8.38
2023-01-30T06:31:57.449Z,8.27
2023-01-30T06:32:57.500Z,8.43
2023-01-30T06:33:57.590Z,8.43
2023-01-30T06:34:57.654Z,8.43
2023-01-30T06:35:57.738Z,8.49
2023-01-30T06:36:57.859Z,8.27
2023-01-30T06:37:57.868Z,8.43
2023-01-30T06:38:57.956Z,8.43
2023-01-30T06:39:58.030Z,8.38
2023-01-30T06:40:58.145Z,8.43
2023-01-30T06:41:58.194Z,8.43
2023-01-30T06:42:58.310Z,8.43
2023-01-30T06:43:58.369Z,8.27
2023-01-30T06:44:58.443Z,8.43
2023-01-30T06:45:58.621Z,8.43
2023-01-30T06:47:04.574Z,8.43
2023-01-30T06:47:58.720Z,8.43
2023-01-30T06:48:59.550Z,8.43
2023-01-30T06:49:58.869Z,8.49
2023-01-30T06:50:58.953Z,8.43
2023-01-30T06:51:59.038Z,8.22
2023-01-30T06:52:59.121Z,8.33
2023-01-30T06:53:59.216Z,8.27
2023-01-30T06:54:59.282Z,8.43
2023-01-30T06:55:59.372Z,8.43
2023-01-30T06:56:59.443Z,8.43
2023-01-30T06:57:59.516Z,8.22
2023-01-30T06:58:59.599Z,8.43
2023-01-30T06:59:59.664Z,8.43
2023-01-30T07:00:59.744Z,8.38
2023-01-30T07:01:59.905Z,8.43
2023-01-30T07:02:59.900Z,8.22
2023-01-30T07:03:59.976Z,8.43
2023-01-30T07:05:00.101Z,8.43
2023-01-30T07:06:00.135Z,8.54
2023-01-30T07:07:00.227Z,8.49
2023-01-30T07:08:00.294Z,8.49
2023-01-30T07:09:00.412Z,8.33
2023-01-30T07:10:07.777Z,8.27
2023-01-30T07:11:00.563Z,8.22
2023-01-30T07:12:00.642Z,8.43
2023-01-30T07:13:00.744Z,8.43
2023-01-30T07:14:00.816Z,8.43
2023-01-30T07:15:00.881Z,8.43
2023-01-30T07:16:00.991Z,8.43
2023-01-30T07:17:01.103Z,8.43
2023-01-30T07:18:07.125Z,8.27
2023-01-30T07:19:01.228Z,8.43
2023-01-30T07:20:01.297Z,8.49
2023-01-30T07:21:01.353Z,8.43
2023-01-30T07:22:03.300Z,8.43
2023-01-30T07:23:01.570Z,8.27
2023-01-30T07:24:01.626Z,8.38
2023-01-30T07:25:01.718Z,8.22
2023-01-30T07:26:01.811Z,8.54
2023-01-30T07:27:01.872Z,8.22
2023-01-30T07:28:01.963Z,8.27
2023-01-30T07:29:02.025Z,8.27
2023-01-30T07:30:02.104Z,8.43
2023-01-30T07:31:02.301Z,8.22
2023-01-30T07:32:02.256Z,8.43
2023-01-30T07:33:02.345Z,8.43
2023-01-30T07:34:02.446Z,8.22
2023-01-30T07:35:05.534Z,8.27
2023-01-30T07:36:02.564Z,8.49
2023-01-30T07:37:02.640Z,8.22
2023-01-30T07:38:02.717Z,8.49
2023-01-30T07:39:02.792Z,8.43
2023-01-30T07:40:02.860Z,8.43
2023-01-30T07:41:02.971Z,8.38
2023-01-30T07:42:03.027Z,8.27
2023-01-30T07:43:03.113Z,8.49
2023-01-30T07:44:03.189Z,8.33
2023-01-30T07:45:03.294Z,8.43
2023-01-30T07:46:03.350Z,8.22
2023-01-30T07:47:03.489Z,8.43
2023-01-30T07:48:03.530Z,8.43
2023-01-30T07:49:09.601Z,8.27
2023-01-30T07:50:03.687Z,8.27
2023-01-30T07:51:03.754Z,8.38
2023-01-30T07:52:03.838Z,8.43
2023-01-30T07:53:03.915Z,8.22
2023-01-30T07:54:04.026Z,8.33
2023-01-30T07:55:04.097Z,8.27
2023-01-30T07:56:04.218Z,8.27
2023-01-30T07:57:04.256Z,8.22
2023-01-30T07:58:04.350Z,8.22
2023-01-30T07:59:04.424Z,8.27
2023-01-30T08:00:04.508Z,8.33
2023-01-30T08:01:04.656Z,8.27
2023-01-30T08:02:04.675Z,8.22
2023-01-30T08:03:04.760Z,8.27
2023-01-30T08:04:04.864Z,8.33
2023-01-30T08:05:06.225Z,8.49
2023-01-30T08:06:05.071Z,8.22
2023-01-30T08:07:05.111Z,8.22
2023-01-30T08:08:05.185Z,8.27
2023-01-30T08:09:05.266Z,8.27
2023-01-30T08:10:05.348Z,8.27
2023-01-30T08:11:05.451Z,8.22
2023-01-30T08:12:05.545Z,8.22
2023-01-30T08:13:05.595Z,8.22
2023-01-30T08:14:05.687Z,8.33
2023-01-30T08:15:05.767Z,8.22
2023-01-30T08:16:05.861Z,8.33
2023-01-30T08:17:05.934Z,8.33
2023-01-30T08:18:06.045Z,8.27
2023-01-30T08:19:06.132Z,8.27
2023-01-30T08:20:12.141Z,8.22
2023-01-30T08:21:06.257Z,8.33
2023-01-30T08:22:06.313Z,8.22
2023-01-30T08:23:06.436Z,8.22
2023-01-30T08:24:06.541Z,8.22
2023-01-30T08:25:06.608Z,8.22
2023-01-30T08:26:06.673Z,8.27
2023-01-30T08:27:06.779Z,8.22
2023-01-30T08:28:06.855Z,8.27
2023-01-30T08:29:06.920Z,8.22
2023-01-30T08:30:07.009Z,8.27
2023-01-30T08:31:07.156Z,8.27
2023-01-30T08:32:07.190Z,8.22
2023-01-30T08:33:07.231Z,8.27
2023-01-30T08:34:07.329Z,8.27
2023-01-30T08:35:07.400Z,8.22
2023-01-30T08:36:07.551Z,8.27
2023-01-30T08:37:07.556Z,8.27
2023-01-30T08:38:07.617Z,8.27
2023-01-30T08:39:07.741Z,8.22
2023-01-30T08:40:07.801Z,8.22
2023-01-30T08:41:07.893Z,8.27
2023-01-30T08:42:07.985Z,8.27
2023-01-30T08:43:08.048Z,8.33
2023-01-30T08:44:08.128Z,8.27
2023-01-30T08:45:08.214Z,8.27
2023-01-30T08:46:08.404Z,8.22
2023-01-30T08:47:08.448Z,8.22
2023-01-30T08:48:08.567Z,8.22
2023-01-30T08:49:08.559Z,8.22
2023-01-30T08:50:08.653Z,8.27
2023-01-30T08:51:14.695Z,8.22
2023-01-30T08:52:08.812Z,8.22
2023-01-30T08:53:08.905Z,8.22
2023-01-30T08:54:09.005Z,8.27
2023-01-30T08:55:09.037Z,8.22
2023-01-30T08:56:09.121Z,8.27
2023-01-30T08:57:09.199Z,8.22
2023-01-30T08:58:09.303Z,8.27
2023-01-30T08:59:09.396Z,8.22
2023-01-30T09:00:09.468Z,8.27
2023-01-30T09:01:09.573Z,8.22
2023-01-30T09:02:10.449Z,8.22
2023-01-30T09:03:09.688Z,8.22
2023-01-30T09:04:09.783Z,8.22
2023-01-30T09:05:09.869Z,8.27
2023-01-30T09:06:09.983Z,8.27
2023-01-30T09:07:10.037Z,8.22
2023-01-30T09:08:10.119Z,8.16
2023-01-30T09:09:10.206Z,8.22
2023-01-30T09:10:10.296Z,8.27
2023-01-30T09:11:10.396Z,8.22
2023-01-30T09:12:10.444Z,8.22
2023-01-30T09:13:10.534Z,8.27
2023-01-30T09:14:10.587Z,8.27
2023-01-30T09:15:10.688Z,8.22
2023-01-30T09:16:10.830Z,8.22
2023-01-30T09:17:10.883Z,8.49
2023-01-30T09:18:10.959Z,8.27
2023-01-30T09:19:11.028Z,8.22
2023-01-30T09:20:11.119Z,8.27
2023-01-30T09:21:11.202Z,8.22
2023-01-30T09:22:17.534Z,8.22
2023-01-30T09:23:11.377Z,8.27
2023-01-30T09:24:11.452Z,8.22
2023-01-30T09:25:11.591Z,8.22
2023-01-30T09:26:11.674Z,8.27
2023-01-30T09:27:11.701Z,8.22
2023-01-30T09:28:11.859Z,8.27
2023-01-30T09:29:11.872Z,8.22
2023-01-30T09:30:11.964Z,8.22
2023-01-30T09:31:12.155Z,8.22
2023-01-30T09:32:12.135Z,8.22
2023-01-30T09:33:12.555Z,8.27
2023-01-30T09:34:12.304Z,8.27
2023-01-30T09:35:12.392Z,8.22
2023-01-30T09:36:12.464Z,8.22
2023-01-30T09:37:12.571Z,8.27
2023-01-30T09:38:12.651Z,8.22
2023-01-30T09:39:12.763Z,8.27
2023-01-30T09:40:12.819Z,8.22
2023-01-30T09:41:12.920Z,8.27
2023-01-30T09:42:13.006Z,8.27
2023-01-30T09:43:13.108Z,8.27
2023-01-30T09:44:13.201Z,8.00
2023-01-30T09:45:13.318Z,8.33
2023-01-30T09:46:13.465Z,8.22
2023-01-30T09:47:13.482Z,8.22
2023-01-30T09:48:13.565Z,8.27
2023-01-30T09:49:13.649Z,8.22
2023-01-30T09:50:13.747Z,8.22
2023-01-30T09:51:13.816Z,8.22
2023-01-30T09:52:13.944Z,8.27
2023-01-30T09:53:19.978Z,8.27
2023-01-30T09:54:14.033Z,8.33
2023-01-30T09:55:14.117Z,8.06
2023-01-30T09:56:14.247Z,8.22
2023-01-30T09:57:21.561Z,8.22
2023-01-30T09:58:14.393Z,8.22
2023-01-30T09:59:14.470Z,8.22
2023-01-30T10:00:14.561Z,8.22
2023-01-30T10:01:14.683Z,8.27
2023-01-30T10:02:14.787Z,8.27
2023-01-30T10:03:14.821Z,8.22
2023-01-30T10:04:15.014Z,8.06
2023-01-30T10:05:15.052Z,8.27
2023-01-30T10:06:15.051Z,8.22
2023-01-30T10:07:15.158Z,8.27
2023-01-30T10:08:15.193Z,8.06
2023-01-30T10:09:15.277Z,8.11
2023-01-30T10:10:15.543Z,8.22
2023-01-30T10:11:15.477Z,8.22
2023-01-30T10:12:15.566Z,8.27
2023-01-30T10:13:15.618Z,8.11
2023-01-30T10:14:15.703Z,8.22
2023-01-30T10:15:15.783Z,8.22
2023-01-30T10:16:15.898Z,8.22
2023-01-30T10:17:15.990Z,8.06
2023-01-30T10:18:16.105Z,8.22
2023-01-30T10:19:29.727Z,8.22
2023-01-30T10:20:16.223Z,8.06
2023-01-30T10:21:16.302Z,8.27
2023-01-30T10:22:16.402Z,8.22
2023-01-30T10:23:16.547Z,8.06
2023-01-30T10:24:22.548Z,8.16
2023-01-30T10:25:16.660Z,8.06
2023-01-30T10:26:16.778Z,8.22
2023-01-30T10:27:16.853Z,8.06
2023-01-30T10:28:16.943Z,8.06
2023-01-30T10:29:17.032Z,8.27
2023-01-30T10:30:17.549Z,8.22
2023-01-30T10:31:17.244Z,8.27
2023-01-30T10:32:17.245Z,8.00
2023-01-30T10:33:17.349Z,7.95
2023-01-30T10:34:17.443Z,8.27
2023-01-30T10:35:17.525Z,8.22
2023-01-30T10:36:17.707Z,8.11
2023-01-30T10:37:17.703Z,8.22
2023-01-30T10:38:17.765Z,8.22
2023-01-30T10:39:17.859Z,8.22
2023-01-30T10:40:18.361Z,8.22
2023-01-30T10:41:18.019Z,8.22
2023-01-30T10:42:18.097Z,8.22
2023-01-30T10:43:18.163Z,8.27
2023-01-30T10:44:18.247Z,8.27
2023-01-30T10:45:18.338Z,8.27
2023-01-30T10:46:18.489Z,8.22
2023-01-30T10:47:18.502Z,8.27
2023-01-30T10:48:18.596Z,8.22
2023-01-30T10:49:18.704Z,8.27
2023-01-30T10:50:19.172Z,8.33
2023-01-30T10:51:18.854Z,8.33
2023-01-30T10:52:18.930Z,8.22
2023-01-30T10:53:19.090Z,8.22
2023-01-30T10:54:19.952Z,8.22
2023-01-30T10:55:36.295Z,8.27
2023-01-30T10:56:19.248Z,8.27
2023-01-30T10:57:19.338Z,8.22
2023-01-30T10:58:19.417Z,8.38
2023-01-30T10:59:19.488Z,8.27
2023-01-30T11:00:19.895Z,8.22
2023-01-30T11:01:19.664Z,8.27
2023-01-30T11:02:19.767Z,8.27
2023-01-30T11:03:19.866Z,8.33
2023-01-30T11:04:19.908Z,8.27
2023-01-30T11:05:20.322Z,8.22
2023-01-30T11:06:20.068Z,8.27
2023-01-30T11:07:20.146Z,8.27
2023-01-30T11:08:20.222Z,8.22
2023-01-30T11:09:20.311Z,8.22
2023-01-30T11:10:20.345Z,8.27
2023-01-30T11:11:20.414Z,8.22
2023-01-30T11:12:20.514Z,8.27
2023-01-30T11:13:20.600Z,8.27
2023-01-30T11:14:20.768Z,8.22
2023-01-30T11:15:20.765Z,8.27
2023-01-30T11:16:20.955Z,8.27
2023-01-30T11:17:20.939Z,8.27
2023-01-30T11:19:17.234Z,8.22
2023-01-30T11:19:22.858Z,8.22
2023-01-30T11:20:21.612Z,8.38
2023-01-30T11:21:22.250Z,8.27
2023-01-30T11:22:21.315Z,8.22
2023-01-30T11:23:21.499Z,8.11
2023-01-30T11:24:21.502Z,8.27
2023-01-30T11:25:21.897Z,8.27
2023-01-30T11:26:37.773Z,8.22
2023-01-30T11:27:21.730Z,8.43
2023-01-30T11:28:21.816Z,8.33
2023-01-30T11:29:21.893Z,8.22
2023-01-30T11:30:22.255Z,8.27
2023-01-30T11:31:38.933Z,8.27
2023-01-30T11:32:22.257Z,8.33
2023-01-30T11:33:22.220Z,8.22
2023-01-30T11:34:22.328Z,8.27
2023-01-30T11:35:22.381Z,8.22
2023-01-30T11:36:22.478Z,8.27
2023-01-30T11:37:22.550Z,8.22
2023-01-30T11:38:22.621Z,8.27
2023-01-30T11:39:22.715Z,8.22
2023-01-30T11:40:22.878Z,8.22
2023-01-30T11:41:22.903Z,8.22
2023-01-30T11:42:23.004Z,8.27
2023-01-30T11:43:23.036Z,8.27
2023-01-30T11:44:23.122Z,8.33
2023-01-30T11:45:23.212Z,8.22
2023-01-30T11:46:23.291Z,8.27
2023-01-30T11:47:23.366Z,8.06
2023-01-30T11:49:01.116Z,8.22
2023-01-30T11:50:07.209Z,8.27
2023-01-30T11:50:31.674Z,8.22
2023-01-30T11:51:23.708Z,8.22
2023-01-30T11:52:23.775Z,8.27
2023-01-30T11:53:23.970Z,8.27
2023-01-30T11:54:23.979Z,8.27
2023-01-30T11:55:24.050Z,8.22
2023-01-30T11:56:24.136Z,8.22
2023-01-30T11:57:30.173Z,8.22
2023-01-30T11:58:24.269Z,8.22
2023-01-30T11:59:24.363Z,8.27
2023-01-30T12:00:24.468Z,8.06
2023-01-30T12:01:24.560Z,8.22
2023-01-30T12:02:24.742Z,8.22
2023-01-30T12:03:24.731Z,8.27
2023-01-30T12:04:24.805Z,8.33
2023-01-30T12:05:24.891Z,8.27
2023-01-30T12:06:24.967Z,8.22
2023-01-30T12:07:25.029Z,8.22
2023-01-30T12:08:40.567Z,8.06
2023-01-30T12:09:25.188Z,8.27
2023-01-30T12:10:25.294Z,8.16
2023-01-30T12:11:25.364Z,8.27
2023-01-30T12:12:25.442Z,8.27
2023-01-30T12:13:25.505Z,8.22
2023-01-30T12:14:25.598Z,8.27
2023-01-30T12:15:25.674Z,8.27
2023-01-30T12:16:25.836Z,8.22
2023-01-30T12:17:25.840Z,8.27
2023-01-30T12:18:25.929Z,8.27
2023-01-30T12:19:26.010Z,8.33
2023-01-30T12:20:26.080Z,8.27
2023-01-30T12:21:26.165Z,8.22
2023-01-30T12:22:26.247Z,8.22
2023-01-30T12:23:26.334Z,8.27
2023-01-30T12:24:26.421Z,8.22
2023-01-30T12:25:26.480Z,8.22
2023-01-30T12:26:26.605Z,8.06
2023-01-30T12:27:26.638Z,8.27
2023-01-30T12:28:33.160Z,8.27
2023-01-30T12:29:26.831Z,8.22
2023-01-30T12:30:26.906Z,8.00
2023-01-30T12:31:26.982Z,8.27
2023-01-30T12:32:27.078Z,8.27
2023-01-30T12:33:27.138Z,8.06
2023-01-30T12:34:27.794Z,8.27
2023-01-30T12:35:27.309Z,8.22
2023-01-30T12:36:27.408Z,8.00
2023-01-30T12:37:27.488Z,8.22
2023-01-30T12:38:27.563Z,8.22
2023-01-30T12:39:27.642Z,8.22
2023-01-30T12:40:27.686Z,8.27
2023-01-30T12:41:27.801Z,8.27
2023-01-30T12:42:27.868Z,8.22
2023-01-30T12:43:27.965Z,8.00
2023-01-30T12:44:28.061Z,8.27
2023-01-30T12:45:28.172Z,8.27
2023-01-30T12:46:28.269Z,8.06
2023-01-30T12:47:28.326Z,8.11
2023-01-30T12:48:28.402Z,8.06
2023-01-30T12:49:28.489Z,8.16
2023-01-30T12:50:28.620Z,8.27
2023-01-30T12:51:28.651Z,8.00
2023-01-30T12:52:28.703Z,8.06
2023-01-30T12:53:28.769Z,8.00
2023-01-30T12:54:28.858Z,8.16
2023-01-30T12:55:28.936Z,8.27
2023-01-30T12:56:29.034Z,8.06
2023-01-30T12:57:29.108Z,8.27
2023-01-30T12:58:29.169Z,8.22
2023-01-30T12:59:35.229Z,8.27
2023-01-30T13:00:29.330Z,8.27
2023-01-30T13:01:29.564Z,8.22
2023-01-30T13:02:29.528Z,8.27
2023-01-30T13:03:29.561Z,8.00
2023-01-30T13:04:29.643Z,8.22
2023-01-30T13:05:29.735Z,8.06
2023-01-30T13:06:29.830Z,8.22
2023-01-30T13:07:29.904Z,8.00
2023-01-30T13:08:30.008Z,8.27
2023-01-30T13:09:30.055Z,8.22
2023-01-30T13:10:30.157Z,8.22
2023-01-30T13:11:30.252Z,8.22
2023-01-30T13:12:30.334Z,8.06
2023-01-30T13:13:30.412Z,8.06
2023-01-30T13:14:30.482Z,8.06
2023-01-30T13:15:30.565Z,8.22
2023-01-30T13:16:30.768Z,8.06
2023-01-30T13:17:30.743Z,8.06
2023-01-30T13:18:30.829Z,8.06
2023-01-30T13:19:40.322Z,8.27